Terminal Aerodrome Forecast
Issued by NWS Lake Charles, LA

Home | Current Version | Previous Version | Text Only | Print | Product List | Glossary On
Versions: 1 2 3 4 5 6 7 8 9 10 11 12 13 14 15 16 17
000
FTUS44 KLCH 171100
TAFBPT
TAF
KBPT 171125Z 1712/1812 09003KT P6SM BKN250
     FM171700 15004KT P6SM VCTS SCT035CB
      TEMPO 1719/1723 4SM -TSRA BKN025CB
     FM180000 15004KT P6SM OVC100=

USA.gov is the U.S. government's official web portal to all federal, state and local government web resources and services.